createdAt,value
2023-01-05T00:01:57.594Z,13.30
2023-01-05T00:04:24.974Z,14.10
2023-01-05T00:06:52.980Z,14.70
2023-01-05T00:09:20.528Z,11.05
2023-01-05T00:12:06.605Z,11.30
2023-01-05T00:14:53.129Z,12.65
2023-01-05T00:17:55.919Z,10.90
2023-01-05T00:21:08.721Z,13.77
2023-01-05T00:23:35.934Z,10.57
2023-01-05T00:26:03.245Z,11.88
2023-01-05T00:28:59.156Z,12.82
2023-01-05T00:31:28.158Z,9.45
2023-01-05T00:33:55.496Z,10.93
2023-01-05T00:36:22.750Z,11.98
2023-01-05T00:38:50.270Z,13.55
2023-01-05T00:41:18.419Z,15.65
2023-01-05T00:43:45.643Z,15.77
2023-01-05T00:46:25.332Z,13.43
2023-01-05T00:48:52.639Z,13.88
2023-01-05T00:51:22.436Z,12.38
2023-01-05T00:53:49.822Z,13.23
2023-01-05T00:56:17.075Z,11.65
2023-01-05T00:58:44.604Z,14.10
2023-01-05T01:01:12.865Z,11.90
2023-01-05T01:03:40.707Z,12.43
2023-01-05T01:06:38.318Z,13.30
2023-01-05T01:10:01.024Z,14.75
2023-01-05T01:12:28.296Z,16.15
2023-01-05T01:14:55.584Z,16.55
2023-01-05T01:17:22.841Z,13.77
2023-01-05T01:19:50.119Z,14.30
2023-01-05T01:22:43.060Z,15.63
2023-01-05T01:25:10.412Z,16.90
2023-01-05T01:27:37.766Z,12.30
2023-01-05T01:30:05.663Z,14.38
2023-01-05T01:32:32.950Z,13.15
2023-01-05T01:35:00.183Z,14.63
2023-01-05T01:37:55.609Z,15.27
2023-01-05T01:40:23.054Z,14.43
2023-01-05T01:43:18.019Z,14.65
2023-01-05T01:45:45.594Z,15.57
2023-01-05T01:48:18.121Z,15.50
2023-01-05T01:50:51.449Z,14.20
2023-01-05T01:53:30.233Z,14.40
2023-01-05T01:56:30.607Z,15.13
2023-01-05T01:58:58.041Z,15.43
2023-01-05T02:01:25.523Z,16.90
2023-01-05T02:03:55.969Z,13.90
2023-01-05T02:06:23.787Z,14.15
2023-01-05T02:08:51.862Z,15.32
2023-01-05T02:14:52.851Z,15.57
2023-01-05T02:18:22.593Z,15.05
2023-01-05T02:21:25.299Z,19.33
2023-01-05T02:24:15.144Z,16.17
2023-01-05T02:26:53.875Z,19.13
2023-01-05T02:30:03.935Z,18.90
2023-01-05T02:32:47.487Z,18.13
2023-01-05T02:35:32.819Z,17.38
2023-01-05T02:38:21.291Z,18.77
2023-01-05T02:41:00.637Z,21.35
2023-01-05T02:43:29.256Z,22.48
2023-01-05T02:45:56.708Z,21.08
2023-01-05T02:48:24.722Z,21.92
2023-01-05T02:51:01.691Z,21.77
2023-01-05T02:53:37.706Z,24.77
2023-01-05T02:56:19.879Z,21.65
2023-01-05T02:58:54.400Z,23.08
2023-01-05T03:01:48.438Z,23.83
2023-01-05T03:04:31.161Z,21.58
2023-01-05T03:07:09.608Z,24.38
2023-01-05T03:09:39.807Z,24.88
2023-01-05T03:12:53.027Z,23.77
2023-01-05T03:15:28.472Z,24.45
2023-01-05T03:18:23.903Z,24.50
2023-01-05T03:20:55.108Z,25.50
2023-01-05T03:23:42.364Z,26.95
2023-01-05T03:30:08.572Z,20.67
2023-01-05T03:33:02.537Z,20.70
2023-01-05T03:35:57.316Z,21.08
2023-01-05T03:38:45.044Z,23.08
2023-01-05T03:41:16.037Z,20.42
2023-01-05T03:43:46.563Z,20.77
2023-01-05T03:46:22.291Z,23.25
2023-01-05T03:48:50.784Z,20.92
2023-01-05T03:51:20.736Z,17.13
2023-01-05T03:53:52.508Z,18.75
2023-01-05T03:56:20.689Z,17.05
2023-01-05T03:59:18.521Z,18.83
2023-01-05T04:01:46.014Z,16.88
2023-01-05T04:04:41.013Z,18.45
2023-01-05T04:10:16.641Z,15.75
2023-01-05T04:12:46.446Z,14.05
2023-01-05T04:15:14.127Z,15.52
2023-01-05T04:22:07.604Z,15.63
2023-01-05T04:24:35.129Z,16.00
2023-01-05T04:27:04.941Z,15.20
2023-01-05T04:29:32.542Z,15.88
2023-01-05T04:32:01.345Z,15.60
2023-01-05T04:34:28.978Z,15.68
2023-01-05T04:36:58.136Z,15.90
2023-01-05T04:39:25.740Z,17.60
2023-01-05T04:41:54.762Z,12.98
2023-01-05T04:44:22.095Z,12.93
2023-01-05T04:46:50.675Z,12.20
2023-01-05T04:49:19.057Z,12.60
2023-01-05T04:51:49.834Z,12.95
2023-01-05T04:54:19.055Z,14.73
2023-01-05T04:56:47.147Z,14.70
2023-01-05T04:59:14.552Z,16.95
2023-01-05T05:01:43.684Z,14.75
2023-01-05T05:04:13.606Z,15.80
2023-01-05T05:06:41.418Z,15.45
2023-01-05T05:09:08.814Z,13.32
2023-01-05T05:11:39.021Z,14.13
2023-01-05T05:14:07.745Z,11.80
2023-01-05T05:16:35.069Z,15.00
2023-01-05T05:19:03.477Z,11.38
2023-01-05T05:21:31.026Z,12.73
2023-01-05T05:23:58.240Z,11.65
2023-01-05T05:26:25.534Z,14.13
2023-01-05T05:28:52.873Z,12.35
2023-01-05T05:31:20.206Z,14.52
2023-01-05T05:33:47.468Z,15.35
2023-01-05T05:36:15.175Z,14.43
2023-01-05T05:38:42.555Z,16.90
2023-01-05T05:41:10.262Z,15.68
2023-01-05T05:43:37.491Z,17.05
2023-01-05T05:46:05.093Z,15.02
2023-01-05T05:48:32.466Z,20.30
2023-01-05T05:50:59.688Z,15.98
2023-01-05T05:53:26.963Z,16.60
2023-01-05T05:55:54.292Z,18.48
2023-01-05T05:58:21.649Z,17.55
2023-01-05T06:01:17.072Z,17.08
2023-01-05T06:03:44.367Z,19.83
2023-01-05T06:06:11.817Z,18.45
2023-01-05T06:09:31.655Z,20.42
2023-01-05T06:12:01.324Z,22.23
2023-01-05T06:14:28.719Z,23.75
2023-01-05T06:16:55.967Z,24.58
2023-01-05T06:19:23.236Z,23.05
2023-01-05T06:21:50.443Z,22.25
2023-01-05T06:24:17.814Z,25.75
2023-01-05T06:26:45.725Z,26.02
2023-01-05T06:29:13.025Z,24.95
2023-01-05T06:31:41.082Z,26.30
2023-01-05T06:34:08.471Z,28.70
2023-01-05T06:36:35.720Z,26.38
2023-01-05T06:39:03.031Z,28.40
2023-01-05T06:41:30.795Z,28.90
2023-01-05T06:43:58.025Z,27.95
2023-01-05T06:46:25.856Z,28.17
2023-01-05T06:48:53.184Z,24.20
2023-01-05T06:51:20.513Z,23.17
2023-01-05T06:53:47.783Z,24.10
2023-01-05T06:56:15.023Z,19.75
2023-01-05T06:58:51.215Z,21.73
2023-01-05T07:01:18.617Z,19.58
2023-01-05T07:03:45.959Z,22.30
2023-01-05T07:06:15.334Z,16.92
2023-01-05T07:08:42.976Z,16.70
2023-01-05T07:11:10.212Z,17.48
2023-01-05T07:13:37.490Z,16.70
2023-01-05T07:16:05.119Z,14.90
2023-01-05T07:18:32.393Z,16.42
2023-01-05T07:21:03.138Z,18.15
2023-01-05T07:23:30.431Z,15.68
2023-01-05T07:26:01.317Z,13.73
2023-01-05T07:28:28.637Z,15.32
2023-01-05T07:31:02.267Z,15.10
2023-01-05T07:33:31.564Z,14.50
2023-01-05T07:36:04.159Z,13.38
2023-01-05T07:38:32.718Z,16.63
2023-01-05T07:41:11.009Z,13.82
2023-01-05T07:43:46.051Z,12.57
2023-01-05T07:46:13.522Z,13.70
2023-01-05T07:48:41.585Z,13.43
2023-01-05T07:51:11.004Z,16.30
2023-01-05T07:53:44.363Z,18.83
2023-01-05T07:56:12.658Z,19.77
2023-01-05T07:58:40.343Z,16.45
2023-01-05T08:01:13.057Z,16.10
2023-01-05T08:03:41.099Z,14.77
2023-01-05T08:06:14.486Z,15.27
2023-01-05T08:08:42.264Z,19.67
2023-01-05T08:11:11.513Z,18.60
2023-01-05T08:17:05.983Z,21.52
2023-01-05T08:19:34.029Z,24.23
2023-01-05T08:24:42.870Z,26.30
2023-01-05T08:27:10.505Z,29.90
2023-01-05T08:29:37.858Z,28.23
2023-01-05T08:32:05.931Z,25.58
2023-01-05T08:34:35.004Z,22.27
2023-01-05T08:37:02.424Z,25.63
2023-01-05T08:39:29.670Z,21.40
2023-01-05T08:42:02.243Z,22.05
2023-01-05T08:44:30.136Z,22.45
2023-01-05T08:47:00.283Z,22.15
2023-01-05T08:49:27.704Z,23.20
2023-01-05T08:51:54.907Z,20.15
2023-01-05T08:54:26.145Z,22.35
2023-01-05T08:56:53.427Z,21.35
2023-01-05T08:59:20.751Z,23.70
2023-01-05T09:01:48.201Z,24.02
2023-01-05T09:04:15.930Z,26.70
2023-01-05T09:06:43.447Z,24.77
2023-01-05T09:09:12.574Z,27.42
2023-01-05T09:11:40.431Z,28.73
2023-01-05T09:14:07.823Z,30.90
2023-01-05T09:17:05.172Z,32.97
2023-01-05T09:19:22.898Z,35.42
2023-01-05T09:21:50.430Z,34.45
2023-01-05T09:24:18.125Z,36.83
2023-01-05T09:26:54.081Z,35.95
2023-01-05T09:29:37.690Z,39.47
2023-01-05T09:32:05.881Z,36.63
2023-01-05T09:34:33.301Z,40.42
2023-01-05T09:37:00.530Z,40.22
2023-01-05T09:39:28.729Z,38.63
2023-01-05T09:41:59.233Z,37.92
2023-01-05T09:44:40.601Z,37.10
2023-01-05T09:47:29.796Z,34.30
2023-01-05T09:49:58.731Z,36.63
2023-01-05T09:52:26.446Z,33.70
2023-01-05T09:54:53.976Z,33.70
2023-01-05T09:57:25.177Z,32.10
2023-01-05T09:59:59.075Z,26.35
2023-01-05T10:02:38.343Z,27.40
2023-01-05T10:05:07.099Z,20.67
2023-01-05T10:07:40.626Z,21.20
2023-01-05T10:10:30.762Z,16.30
2023-01-05T10:13:05.474Z,14.73
2023-01-05T10:15:43.706Z,16.85
2023-01-05T10:18:32.145Z,13.73
2023-01-05T10:21:41.793Z,17.10
2023-01-05T10:24:35.939Z,17.98
2023-01-05T10:27:56.410Z,19.08
2023-01-05T10:30:30.617Z,19.00
2023-01-05T10:33:38.912Z,22.17
2023-01-05T10:36:49.288Z,23.02
2023-01-05T10:39:29.351Z,21.58
2023-01-05T10:42:08.279Z,25.75
2023-01-05T10:44:42.622Z,23.15
2023-01-05T10:47:12.044Z,22.05
2023-01-05T10:49:43.088Z,28.63
2023-01-05T10:52:17.407Z,33.40
2023-01-05T10:54:45.851Z,35.47
2023-01-05T10:57:35.284Z,45.63
2023-01-05T11:00:11.840Z,38.83
2023-01-05T11:02:50.203Z,38.47
2023-01-05T11:05:37.601Z,38.70
2023-01-05T11:08:26.997Z,36.53
2023-01-05T11:10:56.751Z,38.53
2023-01-05T11:13:31.692Z,36.90
2023-01-05T11:16:16.750Z,38.65
2023-01-05T11:18:54.222Z,42.40
2023-01-05T11:21:22.769Z,49.67
2023-01-05T11:23:56.185Z,44.00
2023-01-05T11:26:32.460Z,46.33
2023-01-05T11:29:08.886Z,47.78
2023-01-05T11:34:19.713Z,42.67
2023-01-05T11:37:02.594Z,44.85
2023-01-05T11:39:39.160Z,45.10
2023-01-05T11:42:25.901Z,45.38
2023-01-05T11:44:55.365Z,38.30
2023-01-05T11:47:31.437Z,42.25
2023-01-05T11:50:02.904Z,43.20
2023-01-05T11:52:37.115Z,44.75
2023-01-05T11:55:19.762Z,42.47
2023-01-05T11:57:50.524Z,40.70
2023-01-05T12:00:30.524Z,39.70
2023-01-05T12:03:21.535Z,42.58
2023-01-05T12:05:58.250Z,41.17
2023-01-05T12:08:51.907Z,43.75
2023-01-05T12:11:22.031Z,47.53
2023-01-05T12:14:14.009Z,49.15
2023-01-05T12:16:47.105Z,49.42
2023-01-05T12:19:20.396Z,48.88
2023-01-05T12:22:26.851Z,53.30
2023-01-05T12:25:20.190Z,45.38
2023-01-05T12:28:03.287Z,51.35
2023-01-05T12:34:03.419Z,47.28
2023-01-05T12:36:48.596Z,50.92
2023-01-05T12:39:15.821Z,46.90
2023-01-05T12:42:10.993Z,50.25
2023-01-05T12:45:21.780Z,50.42
2023-01-05T12:48:17.665Z,47.92
2023-01-05T12:51:08.320Z,46.08
2023-01-05T12:53:35.565Z,45.85
2023-01-05T12:56:14.821Z,46.33
2023-01-05T12:58:57.131Z,46.70
2023-01-05T13:01:30.408Z,44.28
2023-01-05T13:04:11.730Z,44.33
2023-01-05T13:06:44.053Z,45.65
2023-01-05T13:09:21.387Z,39.20
2023-01-05T13:11:58.183Z,40.45
2023-01-05T13:14:34.712Z,45.05
2023-01-05T13:17:09.639Z,42.75
2023-01-05T13:19:41.593Z,40.92
2023-01-05T13:22:26.417Z,40.70
2023-01-05T13:25:03.940Z,40.42
2023-01-05T13:27:32.191Z,37.47
2023-01-05T13:30:02.610Z,36.78
2023-01-05T13:33:04.950Z,41.83
2023-01-05T13:36:08.138Z,41.58
2023-01-05T13:38:53.600Z,41.90
2023-01-05T13:41:39.924Z,39.28
2023-01-05T13:44:15.919Z,41.35
2023-01-05T13:47:01.642Z,42.25
2023-01-05T13:49:47.550Z,39.57
2023-01-05T13:52:26.983Z,42.72
2023-01-05T13:55:02.314Z,43.97
2023-01-05T13:57:39.246Z,41.10
2023-01-05T14:00:48.196Z,46.60
2023-01-05T14:03:27.329Z,46.30
2023-01-05T14:06:02.758Z,43.63
2023-01-05T14:08:42.762Z,47.17
2023-01-05T14:11:25.081Z,43.65
2023-01-05T14:14:08.539Z,44.35
2023-01-05T14:16:36.039Z,45.50
2023-01-05T14:19:13.433Z,48.00
2023-01-05T14:22:00.311Z,47.50
2023-01-05T14:27:11.291Z,46.47
2023-01-05T14:29:45.081Z,43.55
2023-01-05T14:32:34.333Z,48.13
2023-01-05T14:35:20.470Z,43.85
2023-01-05T14:37:55.967Z,45.25
2023-01-05T14:40:37.423Z,47.35
2023-01-05T14:43:19.590Z,43.17
2023-01-05T14:46:05.211Z,48.38
2023-01-05T14:48:58.032Z,45.92
2023-01-05T14:51:29.726Z,46.78
2023-01-05T14:54:07.276Z,46.80
2023-01-05T14:56:37.252Z,46.63
2023-01-05T14:59:26.654Z,43.88
2023-01-05T15:01:59.493Z,47.47
2023-01-05T15:04:40.977Z,49.40
2023-01-05T15:07:37.777Z,50.85
2023-01-05T15:10:36.277Z,49.38
2023-01-05T15:13:37.335Z,48.22
2023-01-05T15:16:15.300Z,56.20
2023-01-05T15:19:12.184Z,49.78
2023-01-05T15:21:51.537Z,52.03
2023-01-05T15:24:37.093Z,53.17
2023-01-05T15:27:32.744Z,52.53
2023-01-05T15:30:22.350Z,50.17
2023-01-05T15:33:00.221Z,56.38
2023-01-05T15:35:38.020Z,49.40
2023-01-05T15:38:26.549Z,51.55
2023-01-05T15:41:07.616Z,51.03
2023-01-05T15:43:37.172Z,58.63
2023-01-05T15:46:05.194Z,53.47
2023-01-05T15:48:44.195Z,56.97
2023-01-05T15:51:29.573Z,56.63
2023-01-05T15:53:59.264Z,57.03
2023-01-05T15:56:35.585Z,52.00
2023-01-05T16:01:31.257Z,55.15
2023-01-05T16:04:12.506Z,53.35
2023-01-05T16:06:40.937Z,51.80
2023-01-05T16:09:20.566Z,57.08
2023-01-05T16:11:50.081Z,51.47
2023-01-05T16:14:32.259Z,53.72
2023-01-05T16:17:04.409Z,56.22
2023-01-05T16:19:40.980Z,56.15
2023-01-05T16:22:31.625Z,55.15
2023-01-05T16:25:16.994Z,52.22
2023-01-05T16:27:48.157Z,55.78
2023-01-05T16:30:34.066Z,60.70
2023-01-05T16:33:05.375Z,52.43
2023-01-05T16:35:44.067Z,54.90
2023-01-05T16:38:11.471Z,52.38
2023-01-05T16:40:51.060Z,52.95
2023-01-05T16:43:41.641Z,57.33
2023-01-05T16:46:20.492Z,52.15
2023-01-05T16:48:54.650Z,56.85
2023-01-05T16:51:36.069Z,52.90
2023-01-05T16:54:37.207Z,57.05
2023-01-05T16:57:29.046Z,54.13
2023-01-05T16:59:56.947Z,57.58
2023-01-05T17:02:34.626Z,57.38
2023-01-05T17:05:02.077Z,56.75
2023-01-05T17:07:29.357Z,51.10
2023-01-05T17:09:56.724Z,58.63
2023-01-05T17:12:24.016Z,56.50
2023-01-05T17:14:51.747Z,56.75
2023-01-05T17:19:54.043Z,56.75
2023-01-05T17:22:21.747Z,55.05
2023-01-05T17:24:49.425Z,55.88
2023-01-05T17:27:16.703Z,61.53
2023-01-05T17:29:44.046Z,61.20
2023-01-05T17:32:11.613Z,58.45
2023-01-05T17:34:41.002Z,55.53
2023-01-05T17:37:15.994Z,60.85
2023-01-05T17:39:43.266Z,59.67
2023-01-05T17:42:29.275Z,57.13
2023-01-05T17:44:56.990Z,56.35
2023-01-05T17:47:24.342Z,58.75
2023-01-05T17:49:51.641Z,58.60
2023-01-05T17:52:18.892Z,58.92
2023-01-05T17:54:46.249Z,61.08
2023-01-05T17:57:13.600Z,62.40
2023-01-05T18:02:09.975Z,61.10
2023-01-05T18:04:37.384Z,66.68
2023-01-05T18:07:04.666Z,65.55
2023-01-05T18:09:33.718Z,64.82
2023-01-05T18:12:01.332Z,70.75
2023-01-05T18:14:28.706Z,69.13
2023-01-05T18:16:55.930Z,66.72
2023-01-05T18:19:23.166Z,66.03
2023-01-05T18:21:50.525Z,64.10
2023-01-05T18:24:17.876Z,70.28
2023-01-05T18:26:45.500Z,65.22
2023-01-05T18:29:13.837Z,70.75
2023-01-05T18:31:43.417Z,72.28
2023-01-05T18:34:10.838Z,69.82
2023-01-05T18:36:38.230Z,67.55
2023-01-05T18:39:05.469Z,71.65
2023-01-05T18:41:32.935Z,69.57
2023-01-05T18:44:00.336Z,75.68
2023-01-05T18:46:29.946Z,70.47
2023-01-05T18:48:57.263Z,72.43
2023-01-05T18:51:24.514Z,71.30
2023-01-05T18:53:51.729Z,67.53
2023-01-05T18:56:18.983Z,71.57
2023-01-05T18:58:46.475Z,73.28
2023-01-05T19:01:19.075Z,68.43
2023-01-05T19:03:46.852Z,68.35
2023-01-05T19:06:16.779Z,74.03
2023-01-05T19:08:45.028Z,70.35
2023-01-05T19:11:14.723Z,68.60
2023-01-05T19:13:45.006Z,68.20
2023-01-05T19:16:15.145Z,71.10
2023-01-05T19:18:48.504Z,70.43
2023-01-05T19:21:16.429Z,70.97
2023-01-05T19:23:46.144Z,72.07
2023-01-05T19:26:13.487Z,72.32
2023-01-05T19:28:40.855Z,71.95
2023-01-05T19:31:12.459Z,73.57
2023-01-05T19:33:40.796Z,70.10
2023-01-05T19:36:14.585Z,72.22
2023-01-05T19:38:43.023Z,68.70
2023-01-05T19:41:19.938Z,74.00
2023-01-05T19:43:52.260Z,73.95
2023-01-05T19:46:21.733Z,67.38
2023-01-05T19:48:50.007Z,78.53
2023-01-05T19:51:23.256Z,71.25
2023-01-05T19:53:58.605Z,70.00
2023-01-05T19:56:29.851Z,68.28
2023-01-05T19:58:59.921Z,74.43
2023-01-05T20:01:29.078Z,72.60
2023-01-05T20:03:57.155Z,73.80
2023-01-05T20:06:33.535Z,71.07
2023-01-05T20:11:35.978Z,69.40
2023-01-05T20:14:10.736Z,75.40
2023-01-05T20:16:39.377Z,72.45
2023-01-05T20:19:07.228Z,70.70
2023-01-05T20:21:34.510Z,71.88
2023-01-05T20:24:02.964Z,72.70
2023-01-05T20:26:31.264Z,63.47
2023-01-05T20:29:02.848Z,71.13
2023-01-05T20:31:39.969Z,72.50
2023-01-05T20:34:11.639Z,69.20
2023-01-05T20:36:43.294Z,69.88
2023-01-05T20:39:15.960Z,68.20
2023-01-05T20:41:47.100Z,72.00
2023-01-05T20:44:15.423Z,73.28
2023-01-05T20:46:47.421Z,71.97
2023-01-05T20:49:17.889Z,69.40
2023-01-05T20:51:45.421Z,70.60
2023-01-05T20:54:14.744Z,66.65
2023-01-05T20:56:49.245Z,68.72
2023-01-05T20:59:30.081Z,71.43
2023-01-05T21:01:58.977Z,71.93
2023-01-05T21:04:28.560Z,76.50
2023-01-05T21:06:59.508Z,68.60
2023-01-05T21:09:30.880Z,69.50
2023-01-05T21:18:52.175Z,68.85
2023-01-05T21:21:21.442Z,76.20
2023-01-05T21:23:51.180Z,76.60
2023-01-05T21:26:27.574Z,73.07
2023-01-05T21:28:55.548Z,67.97
2023-01-05T21:31:25.546Z,72.97
2023-01-05T21:34:03.568Z,66.70
2023-01-05T21:36:38.273Z,69.38
2023-01-05T21:39:08.828Z,74.43
2023-01-05T21:41:57.601Z,70.60
2023-01-05T21:44:26.119Z,68.20
2023-01-05T21:46:54.635Z,75.90
2023-01-05T21:49:23.040Z,75.22
2023-01-05T21:52:09.325Z,72.28
2023-01-05T21:57:26.259Z,77.47
2023-01-05T21:59:54.081Z,79.25
2023-01-05T22:02:21.402Z,75.88
2023-01-05T22:04:48.864Z,74.22
2023-01-05T22:07:16.455Z,76.50
2023-01-05T22:09:43.753Z,75.15
2023-01-05T22:12:11.091Z,71.72
2023-01-05T22:14:39.116Z,71.70
2023-01-05T22:17:08.151Z,74.45
2023-01-05T22:19:36.292Z,71.85
2023-01-05T22:22:04.167Z,71.05
2023-01-05T22:24:31.535Z,74.78
2023-01-05T22:26:59.185Z,69.60
2023-01-05T22:29:26.604Z,74.03
2023-01-05T22:31:54.300Z,73.35
2023-01-05T22:34:21.720Z,70.60
2023-01-05T22:36:49.318Z,67.78
2023-01-05T22:39:16.818Z,68.93
2023-01-05T22:41:55.341Z,60.38
2023-01-05T22:44:22.629Z,56.67
2023-01-05T22:46:49.931Z,53.10
2023-01-05T22:49:17.163Z,51.55
2023-01-05T22:51:46.254Z,52.38
2023-01-05T22:54:18.596Z,48.20
2023-01-05T22:56:45.953Z,53.95
2023-01-05T22:59:13.251Z,56.92
2023-01-05T23:01:44.992Z,52.63
2023-01-05T23:04:12.614Z,52.60
2023-01-05T23:06:40.595Z,47.53
2023-01-05T23:09:09.550Z,50.15
2023-01-05T23:11:39.515Z,49.10
2023-01-05T23:14:09.832Z,49.22
2023-01-05T23:16:37.679Z,47.45
2023-01-05T23:19:06.689Z,46.50
2023-01-05T23:21:34.190Z,52.75
2023-01-05T23:24:01.662Z,45.38
2023-01-05T23:26:29.236Z,49.22
2023-01-05T23:28:57.203Z,46.85
2023-01-05T23:31:27.853Z,45.17
2023-01-05T23:33:56.155Z,47.00
2023-01-05T23:36:23.831Z,47.05
2023-01-05T23:38:51.866Z,43.40
2023-01-05T23:41:19.796Z,49.60
2023-01-05T23:43:47.235Z,43.35
2023-01-05T23:46:20.457Z,42.08
2023-01-05T23:49:01.847Z,36.28
2023-01-05T23:51:29.421Z,35.60
2023-01-05T23:53:57.416Z,34.15
2023-01-05T23:56:27.523Z,36.03
2023-01-05T23:59:04.273Z,29.95
